Time,TemperatureF,DewpointF,PressureIn,WindDirection,WindDirectionDegrees,WindSpeedMPH,WindSpeedGustMPH,Humidity,HourlyPrecipIn,Conditions,Clouds,dailyrainin,SoftwareType,DateUTC
2013-05-25 00:10:00,37.7,36.0,30.00,North,9,0.0,0.0,95,0.00,,,0.05,weatherlink.com 1.10,2013-05-25 07:10:00,
2013-05-25 00:25:00,37.2,36.0,30.00,North,9,0.0,0.0,95,0.00,,,0.00,weatherlink.com 1.10,2013-05-25 07:25:00,
2013-05-25 00:40:00,36.8,36.0,30.00,North,9,0.0,0.0,95,0.00,,,0.00,weatherlink.com 1.10,2013-05-25 07:40:00,
2013-05-25 00:55:00,36.4,35.0,30.00,North,9,0.0,0.0,95,0.00,,,0.00,weatherlink.com 1.10,2013-05-25 07:55:00,
2013-05-25 01:10:00,36.2,35.0,30.00,North,9,0.0,0.0,95,0.00,,,0.00,weatherlink.com 1.10,2013-05-25 08:10:00,
2013-05-25 01:25:00,36.0,35.0,29.99,North,9,0.0,0.0,96,0.00,,,0.00,weatherlink.com 1.10,2013-05-25 08:25:00,
2013-05-25 01:40:00,35.8,35.0,29.99,North,9,0.0,0.0,96,0.00,,,0.00,weatherlink.com 1.10,2013-05-25 08:40:00,
2013-05-25 01:55:00,35.6,35.0,29.99,North,9,0.0,0.0,96,0.00,,,0.00,weatherlink.com 1.10,2013-05-25 08:55:00,
2013-05-25 02:10:00,35.4,34.0,29.99,North,9,0.0,0.0,96,0.00,,,0.00,weatherlink.com 1.10,2013-05-25 09:10:00,
2013-05-25 02:25:00,35.2,34.0,29.99,North,9,0.0,0.0,96,0.00,,,0.00,weatherlink.com 1.10,2013-05-25 09:25:00,
2013-05-25 02:40:00,34.9,34.0,29.99,North,9,0.0,0.0,96,0.00,,,0.00,weatherlink.com 1.10,2013-05-25 09:40:00,
2013-05-25 02:55:00,34.6,34.0,29.99,North,9,0.0,0.0,96,0.00,,,0.00,weatherlink.com 1.10,2013-05-25 09:55:00,
2013-05-25 03:10:00,34.5,34.0,29.99,North,9,0.0,0.0,96,0.00,,,0.00,weatherlink.com 1.10,2013-05-25 10:10:00,
2013-05-25 03:25:00,34.5,34.0,29.99,North,9,0.0,0.0,96,0.00,,,0.00,weatherlink.com 1.10,2013-05-25 10:25:00,
2013-05-25 03:40:00,34.4,33.0,29.99,North,9,0.0,0.0,96,0.00,,,0.00,weatherlink.com 1.10,2013-05-25 10:40:00,
2013-05-25 03:55:00,34.3,34.0,29.99,NW,311,0.0,0.0,97,0.00,,,0.00,weatherlink.com 1.10,2013-05-25 10:55:00,
2013-05-25 04:10:00,34.3,34.0,29.99,NW,311,0.0,0.0,97,0.00,,,0.00,weatherlink.com 1.10,2013-05-25 11:10:00,
2013-05-25 04:25:00,34.2,34.0,29.98,NW,311,0.0,0.0,97,0.00,,,0.00,weatherlink.com 1.10,2013-05-25 11:25:00,
2013-05-25 04:40:00,34.1,33.0,29.99,NW,311,0.0,0.0,97,0.00,,,0.00,weatherlink.com 1.10,2013-05-25 11:40:00,
2013-05-25 04:55:00,34.1,33.0,29.99,NW,311,0.0,0.0,97,0.00,,,0.00,weatherlink.com 1.10,2013-05-25 11:55:00,
2013-05-25 05:10:00,34.1,33.0,29.99,NW,311,0.0,0.0,97,0.00,,,0.00,weatherlink.com 1.10,2013-05-25 12:10:00,
2013-05-25 05:25:00,34.2,34.0,29.99,NW,311,0.0,0.0,97,0.00,,,0.00,weatherlink.com 1.10,2013-05-25 12:25:00,
2013-05-25 05:40:00,34.3,34.0,29.99,NW,311,0.0,0.0,97,0.00,,,0.00,weatherlink.com 1.10,2013-05-25 12:40:00,
2013-05-25 05:55:00,34.5,34.0,30.00,NW,311,0.0,0.0,97,0.00,,,0.00,weatherlink.com 1.10,2013-05-25 12:55:00,
2013-05-25 06:10:00,34.4,34.0,30.00,NW,311,0.0,0.0,97,0.00,,,0.00,weatherlink.com 1.10,2013-05-25 13:10:00,
2013-05-25 06:25:00,34.5,34.0,30.00,NW,311,0.0,0.0,97,0.00,,,0.00,weatherlink.com 1.10,2013-05-25 13:25:00,
2013-05-25 06:40:00,34.7,34.0,30.00,NW,311,0.0,0.0,97,0.00,,,0.00,weatherlink.com 1.10,2013-05-25 13:40:00,
2013-05-25 06:55:00,35.2,35.0,30.00,NW,311,0.0,0.0,97,0.00,,,0.00,weatherlink.com 1.10,2013-05-25 13:55:00,
2013-05-25 07:10:00,35.8,35.0,30.00,NW,311,0.0,0.0,98,0.00,,,0.00,weatherlink.com 1.10,2013-05-25 14:10:00,
2013-05-25 07:25:00,36.9,36.0,30.00,NW,311,0.0,0.0,98,0.00,,,0.00,weatherlink.com 1.10,2013-05-25 14:25:00,
2013-05-25 07:40:00,38.2,38.0,30.00,NW,311,0.0,0.0,98,0.00,,,0.00,weatherlink.com 1.10,2013-05-25 14:40:00,
2013-05-25 07:55:00,39.4,39.0,29.99,WNW,292,0.0,0.0,98,0.00,,,0.00,weatherlink.com 1.10,2013-05-25 14:55:00,
2013-05-25 08:10:00,41.2,41.0,29.99,SSW,209,0.0,0.0,98,0.00,,,0.00,weatherlink.com 1.10,2013-05-25 15:10:00,
2013-05-25 08:26:00,42.7,42.0,29.99,NW,305,0.0,0.0,98,0.00,,,0.00,weatherlink.com 1.10,2013-05-25 15:26:00,
2013-05-25 08:41:00,44.0,43.0,29.99,NW,305,0.0,0.0,97,0.00,,,0.00,weatherlink.com 1.10,2013-05-25 15:41:00,
2013-05-25 08:56:00,45.5,42.0,29.99,ENE,61,0.0,0.0,87,0.00,,,0.00,weatherlink.com 1.10,2013-05-25 15:56:00,
2013-05-25 09:11:00,46.9,42.0,29.99,ENE,65,0.0,0.0,84,0.00,,,0.00,weatherlink.com 1.10,2013-05-25 16:11:00,
2013-05-25 09:26:00,48.0,42.0,29.99,SE,137,0.0,1.0,80,0.00,,,0.00,weatherlink.com 1.10,2013-05-25 16:26:00,
2013-05-25 09:41:00,49.1,43.0,29.98,SE,137,0.0,0.0,79,0.00,,,0.00,weatherlink.com 1.10,2013-05-25 16:41:00,
2013-05-25 09:56:00,50.5,43.0,29.98,East,92,0.0,2.0,74,0.00,,,0.00,weatherlink.com 1.10,2013-05-25 16:56:00,
2013-05-25 10:11:00,52.1,42.0,29.98,South,185,2.0,2.0,68,0.00,,,0.00,weatherlink.com 1.10,2013-05-25 17:11:00,
2013-05-25 10:26:00,53.2,43.0,29.97,East,98,0.0,2.0,69,0.00,,,0.00,weatherlink.com 1.10,2013-05-25 17:26:00,
2013-05-25 10:41:00,54.2,41.0,29.97,East,96,1.0,2.0,62,0.00,,,0.00,weatherlink.com 1.10,2013-05-25 17:41:00,
2013-05-25 10:56:00,54.8,41.0,29.96,NNE,12,0.0,2.0,60,0.00,,,0.00,weatherlink.com 1.10,2013-05-25 17:56:00,
2013-05-25 11:11:00,55.7,44.0,29.96,ENE,61,0.0,1.0,64,0.00,,,0.00,weatherlink.com 1.10,2013-05-25 18:11:00,
2013-05-25 11:26:00,57.4,41.0,29.96,SE,131,0.0,1.0,55,0.00,,,0.00,weatherlink.com 1.10,2013-05-25 18:26:00,
2013-05-25 11:41:00,58.8,40.0,29.96,WSW,237,0.0,4.0,50,0.00,,,0.00,weatherlink.com 1.10,2013-05-25 18:41:00,
2013-05-25 11:56:00,58.0,44.0,29.95,ENE,63,0.0,1.0,60,0.00,,,0.00,weatherlink.com 1.10,2013-05-25 18:56:00,
2013-05-25 12:11:00,57.3,42.0,29.95,North,10,0.0,2.0,56,0.00,,,0.00,weatherlink.com 1.10,2013-05-25 19:11:00,
2013-05-25 12:26:00,57.3,42.0,29.95,SSE,155,0.0,1.0,56,0.00,,,0.00,weatherlink.com 1.10,2013-05-25 19:26:00,
2013-05-25 12:41:00,58.6,43.0,29.95,ENE,73,1.0,1.0,56,0.00,,,0.00,weatherlink.com 1.10,2013-05-25 19:41:00,
2013-05-25 12:56:00,59.9,42.0,29.95,ENE,78,0.0,3.0,51,0.00,,,0.00,weatherlink.com 1.10,2013-05-25 19:56:00,
2013-05-25 13:11:00,60.0,42.0,29.95,ESE,122,0.0,2.0,51,0.00,,,0.00,weatherlink.com 1.10,2013-05-25 20:11:00,
2013-05-25 13:26:00,60.3,40.0,29.95,WSW,250,0.0,2.0,48,0.00,,,0.00,weatherlink.com 1.10,2013-05-25 20:26:00,
2013-05-25 13:41:00,60.0,42.0,29.95,NW,321,0.0,1.0,51,0.00,,,0.00,weatherlink.com 1.10,2013-05-25 20:41:00,
2013-05-25 13:56:00,60.2,39.0,29.95,WSW,258,0.0,3.0,46,0.00,,,0.00,weatherlink.com 1.10,2013-05-25 20:56:00,
2013-05-25 14:12:00,61.1,38.0,29.95,NE,45,1.0,2.0,43,0.00,,,0.00,weatherlink.com 1.10,2013-05-25 21:12:00,
2013-05-25 14:27:00,61.0,40.0,29.95,East,84,0.0,2.0,46,0.00,,,0.00,weatherlink.com 1.10,2013-05-25 21:27:00,
2013-05-25 14:42:00,61.4,41.0,29.95,WNW,294,0.0,4.0,48,0.00,,,0.00,weatherlink.com 1.10,2013-05-25 21:42:00,
2013-05-25 14:57:00,61.1,42.0,29.95,West,268,0.0,2.0,49,0.00,,,0.00,weatherlink.com 1.10,2013-05-25 21:57:00,
2013-05-25 15:12:00,60.1,42.0,29.95,SSW,206,0.0,2.0,51,0.00,,,0.00,weatherlink.com 1.10,2013-05-25 22:12:00,
2013-05-25 15:27:00,59.3,42.0,29.95,SSW,202,0.0,2.0,54,0.00,,,0.00,weatherlink.com 1.10,2013-05-25 22:27:00,
2013-05-25 15:42:00,59.5,44.0,29.95,North,5,0.0,2.0,57,0.00,,,0.00,weatherlink.com 1.10,2013-05-25 22:42:00,
2013-05-25 15:57:00,59.1,45.0,29.95,NNE,23,0.0,2.0,59,0.00,,,0.00,weatherlink.com 1.10,2013-05-25 22:57:00,
2013-05-25 16:12:00,58.7,43.0,29.95,WNW,290,1.0,2.0,56,0.00,,,0.00,weatherlink.com 1.10,2013-05-25 23:12:00,
2013-05-25 16:27:00,59.1,43.0,29.95,WNW,287,0.0,2.0,56,0.00,,,0.00,weatherlink.com 1.10,2013-05-25 23:27:00,
2013-05-25 16:42:00,58.4,44.0,29.95,ENE,67,1.0,4.0,60,0.00,,,0.00,weatherlink.com 1.10,2013-05-25 23:42:00,
2013-05-25 16:57:00,57.5,45.0,29.95,NNE,15,0.0,1.0,63,0.00,,,0.00,weatherlink.com 1.10,2013-05-25 23:57:00,
2013-05-25 17:12:00,56.9,44.0,29.95,SE,132,0.0,2.0,63,0.00,,,0.00,weatherlink.com 1.10,2013-05-26 00:12:00,
2013-05-25 17:27:00,56.7,47.0,29.95,NNE,18,0.0,2.0,70,0.00,,,0.00,weatherlink.com 1.10,2013-05-26 00:27:00,
2013-05-25 17:42:00,56.8,46.0,29.95,NE,40,0.0,0.0,68,0.00,,,0.00,weatherlink.com 1.10,2013-05-26 00:42:00,
2013-05-25 17:57:00,56.4,47.0,29.95,NE,37,0.0,0.0,70,0.00,,,0.00,weatherlink.com 1.10,2013-05-26 00:57:00,
2013-05-25 18:12:00,55.8,47.0,29.95,West,271,0.0,0.0,72,0.00,,,0.00,weatherlink.com 1.10,2013-05-26 01:12:00,
2013-05-25 18:27:00,55.6,45.0,29.94,NE,55,0.0,1.0,68,0.00,,,0.00,weatherlink.com 1.10,2013-05-26 01:27:00,
2013-05-25 18:42:00,55.2,46.0,29.94,NNE,14,0.0,1.0,70,0.00,,,0.00,weatherlink.com 1.10,2013-05-26 01:42:00,
2013-05-25 18:57:00,54.9,47.0,29.94,NNE,14,0.0,0.0,74,0.00,,,0.00,weatherlink.com 1.10,2013-05-26 01:57:00,
2013-05-25 19:12:00,54.7,48.0,29.95,NNE,14,0.0,0.0,77,0.00,,,0.00,weatherlink.com 1.10,2013-05-26 02:12:00,
2013-05-25 19:27:00,54.6,48.0,29.95,NNE,14,0.0,0.0,78,0.00,,,0.00,weatherlink.com 1.10,2013-05-26 02:27:00,
2013-05-25 19:42:00,54.4,48.0,29.95,NNE,14,0.0,0.0,79,0.00,,,0.00,weatherlink.com 1.10,2013-05-26 02:42:00,
2013-05-25 19:57:00,54.1,48.0,29.95,NNE,14,0.0,0.0,80,0.00,,,0.00,weatherlink.com 1.10,2013-05-26 02:57:00,
2013-05-25 20:12:00,53.6,48.0,29.95,NNE,14,0.0,0.0,81,0.00,,,0.00,weatherlink.com 1.10,2013-05-26 03:12:00,
2013-05-25 20:27:00,52.9,47.0,29.95,NNE,14,0.0,0.0,81,0.00,,,0.00,weatherlink.com 1.10,2013-05-26 03:27:00,
2013-05-25 20:42:00,52.1,47.0,29.95,NNE,14,0.0,0.0,84,0.00,,,0.00,weatherlink.com 1.10,2013-05-26 03:42:00,
2013-05-25 20:57:00,51.4,47.0,29.95,NNE,14,0.0,0.0,84,0.00,,,0.00,weatherlink.com 1.10,2013-05-26 03:57:00,
2013-05-25 21:12:00,50.5,46.0,29.96,NNE,17,0.0,0.0,85,0.00,,,0.00,weatherlink.com 1.10,2013-05-26 04:12:00,
2013-05-25 21:27:00,49.4,45.0,29.96,NNE,17,0.0,0.0,85,0.00,,,0.00,weatherlink.com 1.10,2013-05-26 04:27:00,
2013-05-25 21:42:00,48.4,44.0,29.96,NNE,17,0.0,0.0,86,0.00,,,0.00,weatherlink.com 1.10,2013-05-26 04:42:00,
2013-05-25 21:57:00,47.7,44.0,29.96,NNE,17,0.0,0.0,88,0.00,,,0.00,weatherlink.com 1.10,2013-05-26 04:57:00,
2013-05-25 22:12:00,47.1,44.0,29.96,NNE,17,0.0,0.0,89,0.00,,,0.00,weatherlink.com 1.10,2013-05-26 05:12:00,
2013-05-25 22:27:00,46.5,44.0,29.96,NNE,17,0.0,0.0,89,0.00,,,0.00,weatherlink.com 1.10,2013-05-26 05:27:00,
2013-05-25 22:42:00,45.9,43.0,29.96,NNE,17,0.0,0.0,90,0.00,,,0.00,weatherlink.com 1.10,2013-05-26 05:42:00,
2013-05-25 22:57:00,45.2,43.0,29.97,NNE,17,0.0,0.0,90,0.00,,,0.00,weatherlink.com 1.10,2013-05-26 05:57:00,
2013-05-25 23:12:00,44.4,42.0,29.97,NNE,17,0.0,0.0,91,0.00,,,0.00,weatherlink.com 1.10,2013-05-26 06:12:00,
2013-05-25 23:27:00,43.8,42.0,29.96,NNE,17,0.0,0.0,92,0.00,,,0.00,weatherlink.com 1.10,2013-05-26 06:27:00,
2013-05-25 23:42:00,43.3,41.0,29.96,NNE,17,0.0,0.0,92,0.00,,,0.00,weatherlink.com 1.10,2013-05-26 06:42:00,
2013-05-25 23:57:00,42.8,41.0,29.96,NNE,17,0.0,0.0,93,0.00,,,0.00,weatherlink.com 1.10,2013-05-26 06:57:00,